createdAt,value
2023-07-18T00:01:51.765Z,18.52
2023-07-18T00:04:18.974Z,18.37
2023-07-18T00:06:46.840Z,18.30
2023-07-18T00:09:14.102Z,18.32
2023-07-18T00:11:49.392Z,18.26
2023-07-18T00:14:18.307Z,18.23
2023-07-18T00:16:52.337Z,18.38
2023-07-18T00:19:20.919Z,18.37
2023-07-18T00:21:49.177Z,18.50
2023-07-18T00:24:17.694Z,18.52
2023-07-18T00:26:45.294Z,18.54
2023-07-18T00:29:12.722Z,18.63
2023-07-18T00:31:40.252Z,18.87
2023-07-18T00:34:07.770Z,19.01
2023-07-18T00:36:35.103Z,19.04
2023-07-18T00:39:02.713Z,19.02
2023-07-18T00:41:30.981Z,19.06
2023-07-18T00:43:58.553Z,18.99
2023-07-18T00:46:26.141Z,18.95
2023-07-18T00:48:53.455Z,18.90
2023-07-18T00:51:25.403Z,18.95
2023-07-18T00:53:54.359Z,18.82
2023-07-18T00:56:23.122Z,18.71
2023-07-18T00:58:50.853Z,18.61
2023-07-18T01:01:30.244Z,18.63
2023-07-18T01:03:57.841Z,18.58
2023-07-18T01:06:34.464Z,18.54
2023-07-18T01:09:01.892Z,18.51
2023-07-18T01:11:29.477Z,18.44
2023-07-18T01:13:57.915Z,18.39
2023-07-18T01:16:27.439Z,18.36
2023-07-18T01:18:55.326Z,18.30
2023-07-18T01:21:28.976Z,18.24
2023-07-18T01:23:56.522Z,18.23
2023-07-18T01:26:25.285Z,18.25
2023-07-18T01:28:52.903Z,18.25
2023-07-18T01:31:20.492Z,18.21
2023-07-18T01:33:49.224Z,18.23
2023-07-18T01:36:18.811Z,18.27
2023-07-18T01:38:46.430Z,18.27
2023-07-18T01:41:13.684Z,18.28
2023-07-18T01:43:41.162Z,18.23
2023-07-18T01:46:08.541Z,18.26
2023-07-18T01:48:36.260Z,18.29
2023-07-18T01:51:05.127Z,18.31
2023-07-18T01:53:32.519Z,18.39
2023-07-18T01:56:00.559Z,18.43
2023-07-18T01:58:28.008Z,18.33
2023-07-18T02:00:55.414Z,18.24
2023-07-18T02:03:22.957Z,18.16
2023-07-18T02:05:50.343Z,18.09
2023-07-18T02:08:18.781Z,18.00
2023-07-18T02:10:46.298Z,17.91
2023-07-18T02:13:13.841Z,17.68
2023-07-18T02:15:46.895Z,17.40
2023-07-18T02:18:14.332Z,17.10
2023-07-18T02:20:41.814Z,17.01
2023-07-18T02:23:09.133Z,16.88
2023-07-18T02:25:36.686Z,16.85
2023-07-18T02:28:04.105Z,16.70
2023-07-18T02:30:31.813Z,16.39
2023-07-18T02:32:59.124Z,16.19
2023-07-18T02:35:27.816Z,16.27
2023-07-18T02:37:56.453Z,16.07
2023-07-18T02:40:24.045Z,16.17
2023-07-18T02:42:51.281Z,15.96
2023-07-18T02:45:19.016Z,15.96
2023-07-18T02:47:47.334Z,16.03
2023-07-18T02:50:14.880Z,15.99
2023-07-18T02:52:44.506Z,16.06
2023-07-18T02:55:13.829Z,16.10
2023-07-18T02:57:41.632Z,16.09
2023-07-18T03:00:21.564Z,16.21
2023-07-18T03:02:50.799Z,16.05
2023-07-18T03:05:18.578Z,15.99
2023-07-18T03:07:48.076Z,16.00
2023-07-18T03:10:15.670Z,16.13
2023-07-18T03:12:45.087Z,16.07
2023-07-18T03:15:12.649Z,16.20
2023-07-18T03:17:39.932Z,16.10
2023-07-18T03:20:14.970Z,16.13
2023-07-18T03:22:42.399Z,16.12
2023-07-18T03:25:12.743Z,16.14
2023-07-18T03:27:42.595Z,16.07
2023-07-18T03:30:13.409Z,16.03
2023-07-18T03:32:43.727Z,15.92
2023-07-18T03:35:13.037Z,15.95
2023-07-18T03:37:40.622Z,15.92
2023-07-18T03:40:11.528Z,15.93
2023-07-18T03:42:39.110Z,15.92
2023-07-18T03:45:06.983Z,15.91
2023-07-18T03:47:34.509Z,16.01
2023-07-18T03:50:01.892Z,16.10
2023-07-18T03:52:29.853Z,16.06
2023-07-18T03:55:02.010Z,15.85
2023-07-18T03:57:29.586Z,15.86
2023-07-18T03:59:58.441Z,15.81
2023-07-18T04:02:26.374Z,15.81
2023-07-18T04:04:54.192Z,16.12
2023-07-18T04:07:21.904Z,15.91
2023-07-18T04:09:49.306Z,15.86
2023-07-18T04:12:18.225Z,15.89
2023-07-18T04:14:45.332Z,15.99
2023-07-18T04:17:12.817Z,15.96
2023-07-18T04:19:40.291Z,16.17
2023-07-18T04:22:07.764Z,16.26
2023-07-18T04:24:35.886Z,16.44
2023-07-18T04:27:03.159Z,16.59
2023-07-18T04:29:31.645Z,16.45
2023-07-18T04:32:00.092Z,16.60
2023-07-18T04:34:28.112Z,16.76
2023-07-18T04:36:55.159Z,16.71
2023-07-18T04:39:22.617Z,16.82
2023-07-18T04:41:55.585Z,16.99
2023-07-18T04:44:26.192Z,16.95
2023-07-18T04:46:56.498Z,17.09
2023-07-18T04:49:23.992Z,17.17
2023-07-18T04:51:52.789Z,17.20
2023-07-18T04:54:21.175Z,17.27
2023-07-18T04:56:48.352Z,17.39
2023-07-18T04:59:15.616Z,17.38
2023-07-18T05:01:42.750Z,17.36
2023-07-18T05:04:12.177Z,17.46
2023-07-18T05:06:39.443Z,17.71
2023-07-18T05:09:07.033Z,17.75
2023-07-18T05:11:35.485Z,17.73
2023-07-18T05:14:02.975Z,17.87
2023-07-18T05:16:30.375Z,17.97
2023-07-18T05:18:57.735Z,17.94
2023-07-18T05:21:25.200Z,18.06
2023-07-18T05:23:52.735Z,18.08
2023-07-18T05:26:20.208Z,18.16
2023-07-18T05:28:53.463Z,18.18
2023-07-18T05:31:21.348Z,18.21
2023-07-18T05:33:49.539Z,18.30
2023-07-18T05:36:17.797Z,18.35
2023-07-18T05:38:46.635Z,18.37
2023-07-18T05:41:13.836Z,18.51
2023-07-18T05:43:42.251Z,18.50
2023-07-18T05:46:10.962Z,18.59
2023-07-18T05:48:38.504Z,18.60
2023-07-18T05:51:06.032Z,18.69
2023-07-18T05:53:33.394Z,18.72
2023-07-18T05:56:00.875Z,18.70
2023-07-18T05:58:28.296Z,18.86
2023-07-18T06:00:55.865Z,18.83
2023-07-18T06:03:30.236Z,18.87
2023-07-18T06:05:57.391Z,19.02
2023-07-18T06:08:26.852Z,19.06
2023-07-18T06:11:00.531Z,19.24
2023-07-18T06:13:28.706Z,19.29
2023-07-18T06:15:57.014Z,19.23
2023-07-18T06:18:25.684Z,19.29
2023-07-18T06:20:52.848Z,19.40
2023-07-18T06:23:20.246Z,19.46
2023-07-18T06:25:47.904Z,19.52
2023-07-18T06:28:15.285Z,19.65
2023-07-18T06:30:55.881Z,19.82
2023-07-18T06:33:25.410Z,19.78
2023-07-18T06:35:57.180Z,19.86
2023-07-18T06:38:26.266Z,19.95
2023-07-18T06:40:54.526Z,19.96
2023-07-18T06:43:22.113Z,19.99
2023-07-18T06:45:49.728Z,20.08
2023-07-18T06:48:29.285Z,20.18
2023-07-18T06:51:08.145Z,20.30
2023-07-18T06:53:35.374Z,20.33
2023-07-18T06:56:02.858Z,20.29
2023-07-18T06:58:30.312Z,20.23
2023-07-18T07:00:58.065Z,20.39
2023-07-18T07:03:26.233Z,20.52
2023-07-18T07:05:55.336Z,20.60
2023-07-18T07:08:24.444Z,20.56
2023-07-18T07:11:03.682Z,20.42
2023-07-18T07:13:31.157Z,20.35
2023-07-18T07:16:05.403Z,20.45
2023-07-18T07:18:33.308Z,20.47
2023-07-18T07:21:01.763Z,20.54
2023-07-18T07:23:31.667Z,20.70
2023-07-18T07:25:59.708Z,20.76
2023-07-18T07:28:27.216Z,20.54
2023-07-18T07:30:55.919Z,20.43
2023-07-18T07:33:23.472Z,20.67
2023-07-18T07:35:51.057Z,20.77
2023-07-18T07:38:20.377Z,20.63
2023-07-18T07:40:47.823Z,20.67
2023-07-18T07:43:15.271Z,20.94
2023-07-18T07:45:44.814Z,20.99
2023-07-18T07:48:12.270Z,20.90
2023-07-18T07:50:40.788Z,20.84
2023-07-18T07:53:08.278Z,20.86
2023-07-18T07:55:35.609Z,20.90
2023-07-18T07:58:03.021Z,21.04
2023-07-18T08:00:30.515Z,20.82
2023-07-18T08:02:58.194Z,20.96
2023-07-18T08:05:26.547Z,21.09
2023-07-18T08:07:54.378Z,21.18
2023-07-18T08:10:21.958Z,21.29
2023-07-18T08:12:50.691Z,21.52
2023-07-18T08:15:20.987Z,21.48
2023-07-18T08:17:48.465Z,21.69
2023-07-18T08:20:15.922Z,21.84
2023-07-18T08:22:47.825Z,21.81
2023-07-18T08:25:19.394Z,21.47
2023-07-18T08:27:46.780Z,21.63
2023-07-18T08:30:14.468Z,21.65
2023-07-18T08:32:41.940Z,21.84
2023-07-18T08:35:10.807Z,21.96
2023-07-18T08:37:38.350Z,22.09
2023-07-18T08:40:06.689Z,22.10
2023-07-18T08:42:35.228Z,22.27
2023-07-18T08:45:15.335Z,22.28
2023-07-18T08:47:46.662Z,22.49
2023-07-18T08:50:14.066Z,22.52
2023-07-18T08:52:41.803Z,22.51
2023-07-18T08:55:10.609Z,22.44
2023-07-18T08:57:40.682Z,22.55
2023-07-18T09:00:09.297Z,22.41
2023-07-18T09:02:38.840Z,22.66
2023-07-18T09:05:06.684Z,22.70
2023-07-18T09:07:37.712Z,22.81
2023-07-18T09:10:05.745Z,22.89
2023-07-18T09:12:37.007Z,22.89
2023-07-18T09:15:04.694Z,22.66
2023-07-18T09:17:33.782Z,23.06
2023-07-18T09:20:08.887Z,23.27
2023-07-18T09:22:37.839Z,23.38
2023-07-18T09:25:05.793Z,23.43
2023-07-18T09:27:39.261Z,23.22
2023-07-18T09:30:09.889Z,23.32
2023-07-18T09:32:38.112Z,23.53
2023-07-18T09:35:06.214Z,23.47
2023-07-18T09:37:47.130Z,23.82
2023-07-18T09:40:19.284Z,23.86
2023-07-18T09:42:48.649Z,24.17
2023-07-18T09:45:18.532Z,23.86
2023-07-18T09:47:46.973Z,23.99
2023-07-18T09:50:15.392Z,23.97
2023-07-18T09:52:51.799Z,24.24
2023-07-18T09:55:29.764Z,24.22
2023-07-18T09:58:00.970Z,24.07
2023-07-18T10:00:31.505Z,24.26
2023-07-18T10:02:59.217Z,24.27
2023-07-18T10:05:27.811Z,24.91
2023-07-18T10:07:55.819Z,25.37
2023-07-18T10:10:24.414Z,25.53
2023-07-18T10:13:01.241Z,25.75
2023-07-18T10:15:30.135Z,25.58
2023-07-18T10:18:16.904Z,25.25
2023-07-18T10:20:59.173Z,24.82
2023-07-18T10:23:44.483Z,24.88
2023-07-18T10:26:12.062Z,24.62
2023-07-18T10:28:49.670Z,24.81
2023-07-18T10:31:40.420Z,25.39
2023-07-18T10:34:15.590Z,25.49
2023-07-18T10:36:56.663Z,25.63
2023-07-18T10:39:45.498Z,25.37
2023-07-18T10:42:22.184Z,25.24
2023-07-18T10:44:53.528Z,25.91
2023-07-18T10:47:21.280Z,26.19
2023-07-18T10:49:49.175Z,26.56
2023-07-18T10:52:18.024Z,26.21
2023-07-18T10:54:56.261Z,25.73
2023-07-18T10:57:35.676Z,26.13
2023-07-18T11:00:06.725Z,26.14
2023-07-18T11:02:43.256Z,26.63
2023-07-18T11:05:15.905Z,26.75
2023-07-18T11:07:45.493Z,27.33
2023-07-18T11:10:15.019Z,27.99
2023-07-18T11:12:43.821Z,28.03
2023-07-18T11:15:13.666Z,28.06
2023-07-18T11:17:43.553Z,27.51
2023-07-18T11:20:13.440Z,27.33
2023-07-18T11:22:42.100Z,27.60
2023-07-18T11:25:11.556Z,27.59
2023-07-18T11:27:39.942Z,28.13
2023-07-18T11:30:10.935Z,28.14
2023-07-18T11:32:41.714Z,27.78
2023-07-18T11:35:12.065Z,28.21
2023-07-18T11:37:44.461Z,28.94
2023-07-18T11:40:12.728Z,29.31
2023-07-18T11:42:52.348Z,29.70
2023-07-18T11:45:24.482Z,29.86
2023-07-18T11:47:56.930Z,29.32
2023-07-18T11:50:29.733Z,29.92
2023-07-18T11:52:59.133Z,30.20
2023-07-18T11:55:28.759Z,29.92
2023-07-18T11:57:57.287Z,29.55
2023-07-18T12:00:24.572Z,30.09
2023-07-18T12:02:53.741Z,29.88
2023-07-18T12:05:21.604Z,29.91
2023-07-18T12:07:49.894Z,29.69
2023-07-18T12:10:18.352Z,29.29
2023-07-18T12:12:45.904Z,30.07
2023-07-18T12:15:15.160Z,30.72
2023-07-18T12:17:43.123Z,30.45
2023-07-18T12:20:11.327Z,31.44
2023-07-18T12:22:39.429Z,32.13
2023-07-18T12:25:08.087Z,32.66
2023-07-18T12:27:35.570Z,32.95
2023-07-18T12:30:02.860Z,32.21
2023-07-18T12:32:42.806Z,31.94
2023-07-18T12:35:10.807Z,31.65
2023-07-18T12:37:38.446Z,31.99
2023-07-18T12:40:06.927Z,32.46
2023-07-18T12:42:34.600Z,33.12
2023-07-18T12:45:02.260Z,33.21
2023-07-18T12:47:29.790Z,33.47
2023-07-18T12:49:57.571Z,33.86
2023-07-18T12:52:25.200Z,33.11
2023-07-18T12:54:52.605Z,31.98
2023-07-18T12:57:20.082Z,31.73
2023-07-18T12:59:48.731Z,32.01
2023-07-18T13:02:16.582Z,31.85
2023-07-18T13:04:44.016Z,32.50
2023-07-18T13:07:11.711Z,33.32
2023-07-18T13:09:40.057Z,32.90
2023-07-18T13:12:08.429Z,32.88
2023-07-18T13:14:35.877Z,33.49
2023-07-18T13:17:03.393Z,33.62
2023-07-18T13:19:37.878Z,32.77
2023-07-18T13:22:05.583Z,33.12
2023-07-18T13:24:40.701Z,32.81
2023-07-18T13:27:08.035Z,33.44
2023-07-18T13:29:36.992Z,33.89
2023-07-18T13:32:05.493Z,34.10
2023-07-18T13:34:32.942Z,34.93
2023-07-18T13:37:00.282Z,35.72
2023-07-18T13:39:27.832Z,35.86
2023-07-18T13:41:55.409Z,35.20
2023-07-18T13:44:22.775Z,34.72
2023-07-18T13:46:52.069Z,34.12
2023-07-18T13:49:21.751Z,33.92
2023-07-18T13:51:51.143Z,32.95
2023-07-18T13:54:18.707Z,32.93
2023-07-18T13:56:47.132Z,32.47
2023-07-18T13:59:14.647Z,31.39
2023-07-18T14:01:41.761Z,32.56
2023-07-18T14:04:09.422Z,33.94
2023-07-18T14:06:36.992Z,34.82
2023-07-18T14:09:05.487Z,35.28
2023-07-18T14:11:33.133Z,35.70
2023-07-18T14:14:01.687Z,36.03
2023-07-18T14:16:42.768Z,35.58
2023-07-18T14:19:10.123Z,33.98
2023-07-18T14:21:37.653Z,32.55
2023-07-18T14:24:07.464Z,31.85
2023-07-18T14:26:35.033Z,32.80
2023-07-18T14:29:02.799Z,33.90
2023-07-18T14:31:31.362Z,34.69
2023-07-18T14:34:06.245Z,34.45
2023-07-18T14:36:35.271Z,35.19
2023-07-18T14:39:05.866Z,35.37
2023-07-18T14:41:33.199Z,35.37
2023-07-18T14:44:00.573Z,35.89
2023-07-18T14:46:28.378Z,36.10
2023-07-18T14:48:57.618Z,36.06
2023-07-18T14:51:25.087Z,35.76
2023-07-18T14:53:58.804Z,34.87
2023-07-18T14:56:38.837Z,34.22
2023-07-18T14:59:06.951Z,34.46
2023-07-18T15:01:39.051Z,34.71
2023-07-18T15:04:06.815Z,34.82
2023-07-18T15:06:35.481Z,34.72
2023-07-18T15:09:02.903Z,34.63
2023-07-18T15:11:30.570Z,34.64
2023-07-18T15:13:57.877Z,34.80
2023-07-18T15:16:26.515Z,34.97
2023-07-18T15:18:53.699Z,35.08
2023-07-18T15:21:20.873Z,33.57
2023-07-18T15:23:48.176Z,33.02
2023-07-18T15:26:16.080Z,32.81
2023-07-18T15:28:43.688Z,33.37
2023-07-18T15:31:11.306Z,34.03
2023-07-18T15:33:38.759Z,34.60
2023-07-18T15:36:06.286Z,34.96
2023-07-18T15:38:34.579Z,34.66
2023-07-18T15:41:02.156Z,34.74
2023-07-18T15:43:31.466Z,34.69
2023-07-18T15:45:59.113Z,34.41
2023-07-18T15:48:28.158Z,33.71
2023-07-18T15:50:55.605Z,33.77
2023-07-18T15:53:23.205Z,33.57
2023-07-18T15:55:52.946Z,33.32
2023-07-18T15:58:21.819Z,33.17
2023-07-18T16:00:50.641Z,32.98
2023-07-18T16:03:20.330Z,32.70
2023-07-18T16:05:48.106Z,32.53
2023-07-18T16:08:16.331Z,32.36
2023-07-18T16:10:43.442Z,32.27
2023-07-18T16:13:10.976Z,32.07
2023-07-18T16:15:38.521Z,31.76
2023-07-18T16:18:06.986Z,31.57
2023-07-18T16:20:34.523Z,31.47
2023-07-18T16:23:01.890Z,31.49
2023-07-18T16:25:29.336Z,31.52
2023-07-18T16:27:56.744Z,31.61
2023-07-18T16:30:25.284Z,31.50
2023-07-18T16:32:55.713Z,31.23
2023-07-18T16:35:24.563Z,31.17
2023-07-18T16:37:52.198Z,31.13
2023-07-18T16:40:22.095Z,31.04
2023-07-18T16:42:49.776Z,30.94
2023-07-18T16:45:17.316Z,30.79
2023-07-18T16:47:45.873Z,30.62
2023-07-18T16:50:13.067Z,30.47
2023-07-18T16:52:41.607Z,30.44
2023-07-18T16:55:09.916Z,30.35
2023-07-18T16:57:39.308Z,30.28
2023-07-18T17:00:07.563Z,30.19
2023-07-18T17:02:35.730Z,30.13
2023-07-18T17:05:10.066Z,30.13
2023-07-18T17:07:38.104Z,30.10
2023-07-18T17:10:06.196Z,30.13
2023-07-18T17:12:34.102Z,30.11
2023-07-18T17:15:02.042Z,30.04
2023-07-18T17:17:31.150Z,30.04
2023-07-18T17:20:07.570Z,29.97
2023-07-18T17:22:36.404Z,29.85
2023-07-18T17:25:05.176Z,29.78
2023-07-18T17:27:34.403Z,29.63
2023-07-18T17:30:06.494Z,29.52
2023-07-18T17:32:34.373Z,29.44
2023-07-18T17:35:04.015Z,29.34
2023-07-18T17:37:31.773Z,29.25
2023-07-18T17:40:02.042Z,29.20
2023-07-18T17:42:30.173Z,29.15
2023-07-18T17:44:58.485Z,29.04
2023-07-18T17:47:26.290Z,29.01
2023-07-18T17:49:59.243Z,28.99
2023-07-18T17:52:28.796Z,28.89
2023-07-18T17:54:56.617Z,28.75
2023-07-18T17:57:27.069Z,28.64
2023-07-18T17:59:55.690Z,28.59
2023-07-18T18:02:23.534Z,28.46
2023-07-18T18:04:51.191Z,28.27
2023-07-18T18:07:19.206Z,28.16
2023-07-18T18:09:46.804Z,28.00
2023-07-18T18:12:14.260Z,27.89
2023-07-18T18:14:51.312Z,27.70
2023-07-18T18:17:18.812Z,27.59
2023-07-18T18:19:47.805Z,27.42
2023-07-18T18:22:22.350Z,27.23
2023-07-18T18:24:49.984Z,27.07
2023-07-18T18:27:17.486Z,26.96
2023-07-18T18:29:44.661Z,26.81
2023-07-18T18:32:13.206Z,26.62
2023-07-18T18:34:52.996Z,26.44
2023-07-18T18:37:29.182Z,26.24
2023-07-18T18:39:57.532Z,25.97
2023-07-18T18:42:26.656Z,25.80
2023-07-18T18:45:01.249Z,25.73
2023-07-18T18:47:28.774Z,25.57
2023-07-18T18:49:58.555Z,25.47
2023-07-18T18:52:26.875Z,25.37
2023-07-18T18:55:08.535Z,25.21
2023-07-18T18:57:42.116Z,24.90
2023-07-18T19:00:11.396Z,24.76
2023-07-18T19:02:41.160Z,24.62
2023-07-18T19:05:09.787Z,24.57
2023-07-18T19:07:37.733Z,24.43
2023-07-18T19:10:07.020Z,24.24
2023-07-18T19:12:38.966Z,24.18
2023-07-18T19:15:07.191Z,24.07
2023-07-18T19:17:35.165Z,24.01
2023-07-18T19:20:03.382Z,23.87
2023-07-18T19:22:32.515Z,23.66
2023-07-18T19:25:00.357Z,23.51
2023-07-18T19:27:27.861Z,23.45
2023-07-18T19:29:55.784Z,23.37
2023-07-18T19:32:24.737Z,23.27
2023-07-18T19:34:52.905Z,23.22
2023-07-18T19:37:21.072Z,23.09
2023-07-18T19:39:50.320Z,22.81
2023-07-18T19:42:18.526Z,22.70
2023-07-18T19:44:48.402Z,22.43
2023-07-18T19:47:16.382Z,22.04
2023-07-18T19:49:45.386Z,21.66
2023-07-18T19:52:13.365Z,21.53
2023-07-18T19:54:41.026Z,20.88
2023-07-18T19:57:09.884Z,20.11
2023-07-18T19:59:39.746Z,19.70
2023-07-18T20:02:07.621Z,19.64
2023-07-18T20:04:35.953Z,19.50
2023-07-18T20:07:04.845Z,19.49
2023-07-18T20:09:32.292Z,19.92
2023-07-18T20:12:02.043Z,20.03
2023-07-18T20:14:29.836Z,19.88
2023-07-18T20:16:59.420Z,19.93
2023-07-18T20:19:28.857Z,20.07
2023-07-18T20:21:56.255Z,20.19
2023-07-18T20:24:23.636Z,20.20
2023-07-18T20:26:52.213Z,20.32
2023-07-18T20:29:19.675Z,20.27
2023-07-18T20:31:47.356Z,20.23
2023-07-18T20:34:15.919Z,20.09
2023-07-18T20:36:43.633Z,20.07
2023-07-18T20:39:11.229Z,20.06
2023-07-18T20:41:38.893Z,20.09
2023-07-18T20:44:07.036Z,19.87
2023-07-18T20:46:37.547Z,19.88
2023-07-18T20:49:08.320Z,19.44
2023-07-18T20:51:36.825Z,19.19
2023-07-18T20:54:06.678Z,18.99
2023-07-18T20:56:35.316Z,19.08
2023-07-18T20:59:06.807Z,19.15
2023-07-18T21:01:35.403Z,19.23
2023-07-18T21:04:03.122Z,19.27
2023-07-18T21:06:30.578Z,19.28
2023-07-18T21:09:01.555Z,19.28
2023-07-18T21:11:29.013Z,19.32
2023-07-18T21:13:56.384Z,19.37
2023-07-18T21:16:23.966Z,19.37
2023-07-18T21:18:53.426Z,19.20
2023-07-18T21:21:21.173Z,19.01
2023-07-18T21:23:49.055Z,19.00
2023-07-18T21:26:18.021Z,18.82
2023-07-18T21:29:01.919Z,18.65
2023-07-18T21:31:33.844Z,18.71
2023-07-18T21:34:02.566Z,18.79
2023-07-18T21:36:31.423Z,18.84
2023-07-18T21:38:59.731Z,18.86
2023-07-18T21:41:30.598Z,18.82
2023-07-18T21:43:58.791Z,18.78
2023-07-18T21:46:26.683Z,18.61
2023-07-18T21:48:55.087Z,18.63
2023-07-18T21:51:23.616Z,18.33
2023-07-18T21:53:50.706Z,17.91
2023-07-18T21:56:18.252Z,17.36
2023-07-18T21:58:45.758Z,17.72
2023-07-18T22:01:13.005Z,17.82
2023-07-18T22:03:41.631Z,17.57
2023-07-18T22:06:11.113Z,17.66
2023-07-18T22:08:40.572Z,17.61
2023-07-18T22:11:09.153Z,17.55
2023-07-18T22:13:36.630Z,17.27
2023-07-18T22:16:11.738Z,17.19
2023-07-18T22:18:43.242Z,17.27
2023-07-18T22:21:10.804Z,17.31
2023-07-18T22:23:38.911Z,17.39
2023-07-18T22:28:42.213Z,17.40
2023-07-18T22:31:12.327Z,17.39
2023-07-18T22:33:42.345Z,17.20
2023-07-18T22:36:10.080Z,17.01
2023-07-18T22:38:37.318Z,16.94
2023-07-18T22:41:04.771Z,17.09
2023-07-18T22:43:32.228Z,17.17
2023-07-18T22:45:59.635Z,17.26
2023-07-18T22:48:29.157Z,17.26
2023-07-18T22:50:59.097Z,17.23
2023-07-18T22:53:26.857Z,17.21
2023-07-18T22:55:54.017Z,17.23
2023-07-18T22:58:21.755Z,17.08
2023-07-18T23:00:51.033Z,16.96
2023-07-18T23:03:18.717Z,16.92
2023-07-18T23:05:45.902Z,16.90
2023-07-18T23:08:14.361Z,16.63
2023-07-18T23:10:41.899Z,16.51
2023-07-18T23:13:09.284Z,16.26
2023-07-18T23:15:36.867Z,16.39
2023-07-18T23:18:09.858Z,16.60
2023-07-18T23:20:37.560Z,16.41
2023-07-18T23:23:06.618Z,15.92
2023-07-18T23:25:33.997Z,15.69
2023-07-18T23:28:01.826Z,15.69
2023-07-18T23:30:29.667Z,15.63
2023-07-18T23:32:57.136Z,15.74
2023-07-18T23:35:27.876Z,16.02
2023-07-18T23:37:57.397Z,16.10
2023-07-18T23:40:24.663Z,16.06
2023-07-18T23:42:53.130Z,16.03
2023-07-18T23:45:20.916Z,16.18
2023-07-18T23:47:48.144Z,16.26
2023-07-18T23:50:15.496Z,16.40
2023-07-18T23:52:42.967Z,16.39
2023-07-18T23:55:10.440Z,16.34
2023-07-18T23:57:38.040Z,16.31
